sensor_id;sensor_type;location;lat;lon;timestamp;P1;P2;P0
63969;PMS5003;50156;37.772;-122.432;2022-12-07T00:01:44;5;5;
63969;PMS5003;50156;37.772;-122.432;2022-12-07T00:04:14;3;3;
63969;PMS5003;50156;37.772;-122.432;2022-12-07T00:06:45;3;3;
63969;PMS5003;50156;37.772;-122.432;2022-12-07T00:09:18;3;3;
63969;PMS5003;50156;37.772;-122.432;2022-12-07T00:11:48;5;5;
63969;PMS5003;50156;37.772;-122.432;2022-12-07T00:14:18;6;6;
63969;PMS5003;50156;37.772;-122.432;2022-12-07T00:16:49;5;5;
63969;PMS5003;50156;37.772;-122.432;2022-12-07T00:19:18;3;3;
63969;PMS5003;50156;37.772;-122.432;2022-12-07T00:21:47;4;4;
63969;PMS5003;50156;37.772;-122.432;2022-12-07T00:24:16;4;4;
63969;PMS5003;50156;37.772;-122.432;2022-12-07T00:26:45;3;3;
63969;PMS5003;50156;37.772;-122.432;2022-12-07T00:29:15;3;3;
63969;PMS5003;50156;37.772;-122.432;2022-12-07T00:31:47;3;3;
63969;PMS5003;50156;37.772;-122.432;2022-12-07T00:34:17;3;3;
63969;PMS5003;50156;37.772;-122.432;2022-12-07T00:36:48;2;2;
63969;PMS5003;50156;37.772;-122.432;2022-12-07T00:39:17;5;5;
63969;PMS5003;50156;37.772;-122.432;2022-12-07T00:41:46;3;3;
63969;PMS5003;50156;37.772;-122.432;2022-12-07T00:44:15;4;2;
63969;PMS5003;50156;37.772;-122.432;2022-12-07T00:46:44;3;3;
63969;PMS5003;50156;37.772;-122.432;2022-12-07T00:49:12;3;3;
63969;PMS5003;50156;37.772;-122.432;2022-12-07T00:51:41;4;3;
63969;PMS5003;50156;37.772;-122.432;2022-12-07T00:54:10;2;2;
63969;PMS5003;50156;37.772;-122.432;2022-12-07T00:56:39;3;3;
63969;PMS5003;50156;37.772;-122.432;2022-12-07T00:59:10;3;3;
63969;PMS5003;50156;37.772;-122.432;2022-12-07T01:01:42;3;3;
63969;PMS5003;50156;37.772;-122.432;2022-12-07T01:04:11;3;3;
63969;PMS5003;50156;37.772;-122.432;2022-12-07T01:06:39;4;3;
63969;PMS5003;50156;37.772;-122.432;2022-12-07T01:09:08;3;3;
63969;PMS5003;50156;37.772;-122.432;2022-12-07T01:11:37;3;3;
63969;PMS5003;50156;37.772;-122.432;2022-12-07T01:14:08;3;3;
63969;PMS5003;50156;37.772;-122.432;2022-12-07T01:16:37;2;2;
63969;PMS5003;50156;37.772;-122.432;2022-12-07T01:19:06;3;3;
63969;PMS5003;50156;37.772;-122.432;2022-12-07T01:21:35;2;2;
63969;PMS5003;50156;37.772;-122.432;2022-12-07T01:24:06;3;3;
63969;PMS5003;50156;37.772;-122.432;2022-12-07T01:26:38;4;4;
63969;PMS5003;50156;37.772;-122.432;2022-12-07T01:29:06;4;4;
63969;PMS5003;50156;37.772;-122.432;2022-12-07T01:31:35;2;2;
63969;PMS5003;50156;37.772;-122.432;2022-12-07T01:34:03;5;5;
63969;PMS5003;50156;37.772;-122.432;2022-12-07T01:36:33;3;3;
63969;PMS5003;50156;37.772;-122.432;2022-12-07T01:39:03;4;4;
63969;PMS5003;50156;37.772;-122.432;2022-12-07T01:41:35;7;6;
63969;PMS5003;50156;37.772;-122.432;2022-12-07T01:44:08;4;4;
63969;PMS5003;50156;37.772;-122.432;2022-12-07T01:46:39;6;6;
63969;PMS5003;50156;37.772;-122.432;2022-12-07T01:49:11;6;6;
63969;PMS5003;50156;37.772;-122.432;2022-12-07T01:51:45;5;5;
63969;PMS5003;50156;37.772;-122.432;2022-12-07T01:54:17;5;3;
63969;PMS5003;50156;37.772;-122.432;2022-12-07T01:56:48;4;4;
63969;PMS5003;50156;37.772;-122.432;2022-12-07T01:59:21;7;7;
63969;PMS5003;50156;37.772;-122.432;2022-12-07T02:01:51;4;4;
63969;PMS5003;50156;37.772;-122.432;2022-12-07T02:04:21;7;7;
63969;PMS5003;50156;37.772;-122.432;2022-12-07T02:06:50;5;5;
63969;PMS5003;50156;37.772;-122.432;2022-12-07T02:09:20;4;4;
63969;PMS5003;50156;37.772;-122.432;2022-12-07T02:11:49;4;4;
63969;PMS5003;50156;37.772;-122.432;2022-12-07T02:14:20;6;5;
63969;PMS5003;50156;37.772;-122.432;2022-12-07T02:16:53;3;3;
63969;PMS5003;50156;37.772;-122.432;2022-12-07T02:19:38;6;6;
63969;PMS5003;50156;37.772;-122.432;2022-12-07T02:22:48;7;7;
63969;PMS5003;50156;37.772;-122.432;2022-12-07T02:25:50;11;9;
63969;PMS5003;50156;37.772;-122.432;2022-12-07T02:28:30;6;5;
63969;PMS5003;50156;37.772;-122.432;2022-12-07T02:31:02;5;5;
63969;PMS5003;50156;37.772;-122.432;2022-12-07T02:33:40;8;7;
63969;PMS5003;50156;37.772;-122.432;2022-12-07T02:36:15;8;8;
63969;PMS5003;50156;37.772;-122.432;2022-12-07T02:38:50;7;7;
63969;PMS5003;50156;37.772;-122.432;2022-12-07T02:41:24;7;7;
63969;PMS5003;50156;37.772;-122.432;2022-12-07T02:43:57;8;6;
63969;PMS5003;50156;37.772;-122.432;2022-12-07T02:46:29;5;5;
63969;PMS5003;50156;37.772;-122.432;2022-12-07T02:49:02;7;7;
63969;PMS5003;50156;37.772;-122.432;2022-12-07T02:51:33;7;7;
63969;PMS5003;50156;37.772;-122.432;2022-12-07T02:54:09;8;7;
63969;PMS5003;50156;37.772;-122.432;2022-12-07T02:56:43;9;7;
63969;PMS5003;50156;37.772;-122.432;2022-12-07T02:59:17;7;7;
63969;PMS5003;50156;37.772;-122.432;2022-12-07T03:01:58;9;9;
63969;PMS5003;50156;37.772;-122.432;2022-12-07T03:04:41;5;5;
63969;PMS5003;50156;37.772;-122.432;2022-12-07T03:07:18;8;8;
63969;PMS5003;50156;37.772;-122.432;2022-12-07T03:09:57;8;8;
63969;PMS5003;50156;37.772;-122.432;2022-12-07T03:12:31;9;8;
63969;PMS5003;50156;37.772;-122.432;2022-12-07T03:15:05;8;7;
63969;PMS5003;50156;37.772;-122.432;2022-12-07T03:17:39;9;9;
63969;PMS5003;50156;37.772;-122.432;2022-12-07T03:20:11;10;10;
63969;PMS5003;50156;37.772;-122.432;2022-12-07T03:22:46;10;10;
63969;PMS5003;50156;37.772;-122.432;2022-12-07T03:25:16;12;10;
63969;PMS5003;50156;37.772;-122.432;2022-12-07T03:27:47;8;7;
63969;PMS5003;50156;37.772;-122.432;2022-12-07T03:30:21;11;11;
63969;PMS5003;50156;37.772;-122.432;2022-12-07T03:32:56;10;10;
63969;PMS5003;50156;37.772;-122.432;2022-12-07T03:35:31;12;12;
63969;PMS5003;50156;37.772;-122.432;2022-12-07T03:38:06;10;10;
63969;PMS5003;50156;37.772;-122.432;2022-12-07T03:40:43;15;15;
63969;PMS5003;50156;37.772;-122.432;2022-12-07T03:43:16;11;11;
63969;PMS5003;50156;37.772;-122.432;2022-12-07T03:45:49;10;10;
63969;PMS5003;50156;37.772;-122.432;2022-12-07T03:48:27;11;11;
63969;PMS5003;50156;37.772;-122.432;2022-12-07T03:51:03;16;15;
63969;PMS5003;50156;37.772;-122.432;2022-12-07T03:53:40;12;10;
63969;PMS5003;50156;37.772;-122.432;2022-12-07T03:58:26;12;11;
63969;PMS5003;50156;37.772;-122.432;2022-12-07T04:05:55;12;12;
63969;PMS5003;50156;37.772;-122.432;2022-12-07T04:08:24;15;13;
63969;PMS5003;50156;37.772;-122.432;2022-12-07T04:10:53;12;11;
63969;PMS5003;50156;37.772;-122.432;2022-12-07T04:13:22;13;13;
63969;PMS5003;50156;37.772;-122.432;2022-12-07T04:15:51;10;9;
63969;PMS5003;50156;37.772;-122.432;2022-12-07T04:18:20;22;18;
63969;PMS5003;50156;37.772;-122.432;2022-12-07T04:20:49;21;21;
63969;PMS5003;50156;37.772;-122.432;2022-12-07T04:23:17;23;23;
63969;PMS5003;50156;37.772;-122.432;2022-12-07T04:25:48;19;19;
63969;PMS5003;50156;37.772;-122.432;2022-12-07T04:28:16;17;16;
63969;PMS5003;50156;37.772;-122.432;2022-12-07T04:30:45;19;19;
63969;PMS5003;50156;37.772;-122.432;2022-12-07T04:33:14;15;13;
63969;PMS5003;50156;37.772;-122.432;2022-12-07T04:35:42;22;19;
63969;PMS5003;50156;37.772;-122.432;2022-12-07T04:38:11;17;17;
63969;PMS5003;50156;37.772;-122.432;2022-12-07T04:40:40;18;17;
63969;PMS5003;50156;37.772;-122.432;2022-12-07T04:43:09;21;18;
63969;PMS5003;50156;37.772;-122.432;2022-12-07T04:45:38;17;15;
63969;PMS5003;50156;37.772;-122.432;2022-12-07T04:48:06;13;13;
63969;PMS5003;50156;37.772;-122.432;2022-12-07T04:50:35;16;15;
63969;PMS5003;50156;37.772;-122.432;2022-12-07T04:53:03;13;13;
63969;PMS5003;50156;37.772;-122.432;2022-12-07T04:55:32;14;14;
63969;PMS5003;50156;37.772;-122.432;2022-12-07T04:58:01;14;14;
63969;PMS5003;50156;37.772;-122.432;2022-12-07T05:00:29;19;19;
63969;PMS5003;50156;37.772;-122.432;2022-12-07T05:02:59;23;20;
63969;PMS5003;50156;37.772;-122.432;2022-12-07T05:05:28;19;19;
63969;PMS5003;50156;37.772;-122.432;2022-12-07T05:07:57;19;19;
63969;PMS5003;50156;37.772;-122.432;2022-12-07T05:10:26;23;23;
63969;PMS5003;50156;37.772;-122.432;2022-12-07T05:12:55;18;18;
63969;PMS5003;50156;37.772;-122.432;2022-12-07T05:15:23;17;14;
63969;PMS5003;50156;37.772;-122.432;2022-12-07T05:17:52;18;16;
63969;PMS5003;50156;37.772;-122.432;2022-12-07T05:20:21;15;14;
63969;PMS5003;50156;37.772;-122.432;2022-12-07T05:22:49;15;15;
63969;PMS5003;50156;37.772;-122.432;2022-12-07T05:25:18;15;15;
63969;PMS5003;50156;37.772;-122.432;2022-12-07T05:27:47;16;16;
63969;PMS5003;50156;37.772;-122.432;2022-12-07T05:30:16;24;23;
63969;PMS5003;50156;37.772;-122.432;2022-12-07T05:32:45;18;16;
63969;PMS5003;50156;37.772;-122.432;2022-12-07T05:35:13;17;17;
63969;PMS5003;50156;37.772;-122.432;2022-12-07T05:37:43;15;13;
63969;PMS5003;50156;37.772;-122.432;2022-12-07T05:40:13;12;12;
63969;PMS5003;50156;37.772;-122.432;2022-12-07T05:42:42;16;14;
63969;PMS5003;50156;37.772;-122.432;2022-12-07T05:45:11;14;12;
63969;PMS5003;50156;37.772;-122.432;2022-12-07T05:47:40;11;11;
63969;PMS5003;50156;37.772;-122.432;2022-12-07T05:50:08;14;12;
63969;PMS5003;50156;37.772;-122.432;2022-12-07T05:52:37;16;14;
63969;PMS5003;50156;37.772;-122.432;2022-12-07T05:55:06;17;16;
63969;PMS5003;50156;37.772;-122.432;2022-12-07T05:57:35;14;14;
63969;PMS5003;50156;37.772;-122.432;2022-12-07T06:00:05;13;13;
63969;PMS5003;50156;37.772;-122.432;2022-12-07T06:02:35;16;14;
63969;PMS5003;50156;37.772;-122.432;2022-12-07T06:05:04;12;12;
63969;PMS5003;50156;37.772;-122.432;2022-12-07T06:07:33;11;11;
63969;PMS5003;50156;37.772;-122.432;2022-12-07T06:10:02;18;17;
63969;PMS5003;50156;37.772;-122.432;2022-12-07T06:12:31;22;20;
63969;PMS5003;50156;37.772;-122.432;2022-12-07T06:15:00;20;20;
63969;PMS5003;50156;37.772;-122.432;2022-12-07T06:17:29;24;24;
63969;PMS5003;50156;37.772;-122.432;2022-12-07T06:19:58;23;19;
63969;PMS5003;50156;37.772;-122.432;2022-12-07T06:22:27;18;17;
63969;PMS5003;50156;37.772;-122.432;2022-12-07T06:24:56;16;16;
63969;PMS5003;50156;37.772;-122.432;2022-12-07T06:27:25;14;14;
63969;PMS5003;50156;37.772;-122.432;2022-12-07T06:29:54;18;15;
63969;PMS5003;50156;37.772;-122.432;2022-12-07T06:32:23;13;13;
63969;PMS5003;50156;37.772;-122.432;2022-12-07T06:34:51;19;17;
63969;PMS5003;50156;37.772;-122.432;2022-12-07T06:37:20;14;14;
63969;PMS5003;50156;37.772;-122.432;2022-12-07T06:39:48;15;15;
63969;PMS5003;50156;37.772;-122.432;2022-12-07T06:42:17;16;15;
63969;PMS5003;50156;37.772;-122.432;2022-12-07T06:44:45;14;14;
63969;PMS5003;50156;37.772;-122.432;2022-12-07T06:47:14;15;13;
63969;PMS5003;50156;37.772;-122.432;2022-12-07T06:49:42;13;13;
63969;PMS5003;50156;37.772;-122.432;2022-12-07T06:52:11;18;16;
63969;PMS5003;50156;37.772;-122.432;2022-12-07T06:54:40;14;14;
63969;PMS5003;50156;37.772;-122.432;2022-12-07T06:57:09;13;13;
63969;PMS5003;50156;37.772;-122.432;2022-12-07T06:59:37;12;10;
63969;PMS5003;50156;37.772;-122.432;2022-12-07T07:02:07;14;14;
63969;PMS5003;50156;37.772;-122.432;2022-12-07T07:04:36;17;17;
63969;PMS5003;50156;37.772;-122.432;2022-12-07T07:07:05;24;21;
63969;PMS5003;50156;37.772;-122.432;2022-12-07T07:09:34;19;17;
63969;PMS5003;50156;37.772;-122.432;2022-12-07T07:12:03;15;14;
63969;PMS5003;50156;37.772;-122.432;2022-12-07T07:14:32;14;13;
63969;PMS5003;50156;37.772;-122.432;2022-12-07T07:17:00;11;10;
63969;PMS5003;50156;37.772;-122.432;2022-12-07T07:19:29;9;9;
63969;PMS5003;50156;37.772;-122.432;2022-12-07T07:21:58;11;9;
63969;PMS5003;50156;37.772;-122.432;2022-12-07T07:24:28;12;12;
63969;PMS5003;50156;37.772;-122.432;2022-12-07T07:26:56;10;10;
63969;PMS5003;50156;37.772;-122.432;2022-12-07T07:29:25;10;9;
63969;PMS5003;50156;37.772;-122.432;2022-12-07T07:31:53;12;11;
63969;PMS5003;50156;37.772;-122.432;2022-12-07T07:34:21;13;11;
63969;PMS5003;50156;37.772;-122.432;2022-12-07T07:36:50;15;13;
63969;PMS5003;50156;37.772;-122.432;2022-12-07T07:39:19;13;10;
63969;PMS5003;50156;37.772;-122.432;2022-12-07T07:41:48;10;10;
63969;PMS5003;50156;37.772;-122.432;2022-12-07T07:44:17;11;9;
63969;PMS5003;50156;37.772;-122.432;2022-12-07T07:46:45;10;10;
63969;PMS5003;50156;37.772;-122.432;2022-12-07T07:49:14;7;7;
63969;PMS5003;50156;37.772;-122.432;2022-12-07T07:51:42;9;9;
63969;PMS5003;50156;37.772;-122.432;2022-12-07T07:54:10;7;7;
63969;PMS5003;50156;37.772;-122.432;2022-12-07T07:56:38;10;8;
63969;PMS5003;50156;37.772;-122.432;2022-12-07T07:59:07;9;6;
63969;PMS5003;50156;37.772;-122.432;2022-12-07T08:01:36;9;7;
63969;PMS5003;50156;37.772;-122.432;2022-12-07T08:04:05;7;7;
63969;PMS5003;50156;37.772;-122.432;2022-12-07T08:06:33;11;10;
63969;PMS5003;50156;37.772;-122.432;2022-12-07T08:09:02;10;10;
63969;PMS5003;50156;37.772;-122.432;2022-12-07T08:11:31;11;10;
63969;PMS5003;50156;37.772;-122.432;2022-12-07T08:14:00;10;10;
63969;PMS5003;50156;37.772;-122.432;2022-12-07T08:16:30;10;10;
63969;PMS5003;50156;37.772;-122.432;2022-12-07T08:18:59;10;10;
63969;PMS5003;50156;37.772;-122.432;2022-12-07T08:21:28;9;9;
63969;PMS5003;50156;37.772;-122.432;2022-12-07T08:23:57;10;10;
63969;PMS5003;50156;37.772;-122.432;2022-12-07T08:26:25;11;11;
63969;PMS5003;50156;37.772;-122.432;2022-12-07T08:28:54;12;12;
63969;PMS5003;50156;37.772;-122.432;2022-12-07T08:31:22;14;13;
63969;PMS5003;50156;37.772;-122.432;2022-12-07T08:33:51;13;11;
63969;PMS5003;50156;37.772;-122.432;2022-12-07T08:36:20;10;10;
63969;PMS5003;50156;37.772;-122.432;2022-12-07T08:38:49;11;11;
63969;PMS5003;50156;37.772;-122.432;2022-12-07T08:41:18;10;10;
63969;PMS5003;50156;37.772;-122.432;2022-12-07T08:43:46;9;9;
63969;PMS5003;50156;37.772;-122.432;2022-12-07T08:46:17;9;8;
63969;PMS5003;50156;37.772;-122.432;2022-12-07T08:48:51;12;12;
63969;PMS5003;50156;37.772;-122.432;2022-12-07T08:51:23;10;10;
63969;PMS5003;50156;37.772;-122.432;2022-12-07T08:53:52;10;10;
63969;PMS5003;50156;37.772;-122.432;2022-12-07T08:56:23;13;9;
63969;PMS5003;50156;37.772;-122.432;2022-12-07T08:58:53;9;9;
63969;PMS5003;50156;37.772;-122.432;2022-12-07T09:01:22;8;8;
63969;PMS5003;50156;37.772;-122.432;2022-12-07T09:03:51;9;9;
63969;PMS5003;50156;37.772;-122.432;2022-12-07T09:06:19;11;10;
63969;PMS5003;50156;37.772;-122.432;2022-12-07T09:08:49;12;12;
63969;PMS5003;50156;37.772;-122.432;2022-12-07T09:11:21;9;9;
63969;PMS5003;50156;37.772;-122.432;2022-12-07T09:13:51;11;11;
63969;PMS5003;50156;37.772;-122.432;2022-12-07T09:16:19;10;10;
63969;PMS5003;50156;37.772;-122.432;2022-12-07T09:18:47;12;12;
63969;PMS5003;50156;37.772;-122.432;2022-12-07T09:21:16;12;11;
63969;PMS5003;50156;37.772;-122.432;2022-12-07T09:23:45;9;9;
63969;PMS5003;50156;37.772;-122.432;2022-12-07T09:26:13;12;11;
63969;PMS5003;50156;37.772;-122.432;2022-12-07T09:28:41;13;13;
63969;PMS5003;50156;37.772;-122.432;2022-12-07T09:31:10;13;13;
63969;PMS5003;50156;37.772;-122.432;2022-12-07T09:33:38;12;11;
63969;PMS5003;50156;37.772;-122.432;2022-12-07T09:36:07;17;14;
63969;PMS5003;50156;37.772;-122.432;2022-12-07T09:38:36;18;15;
63969;PMS5003;50156;37.772;-122.432;2022-12-07T09:41:05;10;10;
63969;PMS5003;50156;37.772;-122.432;2022-12-07T09:43:35;14;14;
63969;PMS5003;50156;37.772;-122.432;2022-12-07T09:46:05;15;13;
63969;PMS5003;50156;37.772;-122.432;2022-12-07T09:48:38;16;15;
63969;PMS5003;50156;37.772;-122.432;2022-12-07T09:51:12;15;13;
63969;PMS5003;50156;37.772;-122.432;2022-12-07T09:53:44;16;13;
63969;PMS5003;50156;37.772;-122.432;2022-12-07T09:56:14;14;13;
63969;PMS5003;50156;37.772;-122.432;2022-12-07T09:58:45;16;14;
63969;PMS5003;50156;37.772;-122.432;2022-12-07T10:01:16;18;16;
63969;PMS5003;50156;37.772;-122.432;2022-12-07T10:03:48;14;14;
63969;PMS5003;50156;37.772;-122.432;2022-12-07T10:06:19;15;15;
63969;PMS5003;50156;37.772;-122.432;2022-12-07T10:08:48;14;14;
63969;PMS5003;50156;37.772;-122.432;2022-12-07T10:11:17;17;15;
63969;PMS5003;50156;37.772;-122.432;2022-12-07T10:13:46;18;18;
63969;PMS5003;50156;37.772;-122.432;2022-12-07T10:16:48;16;15;
63969;PMS5003;50156;37.772;-122.432;2022-12-07T10:19:18;18;17;
63969;PMS5003;50156;37.772;-122.432;2022-12-07T10:22:09;19;18;
63969;PMS5003;50156;37.772;-122.432;2022-12-07T10:24:40;15;15;
63969;PMS5003;50156;37.772;-122.432;2022-12-07T10:27:17;20;18;
63969;PMS5003;50156;37.772;-122.432;2022-12-07T10:29:48;18;18;
63969;PMS5003;50156;37.772;-122.432;2022-12-07T10:32:29;19;19;
63969;PMS5003;50156;37.772;-122.432;2022-12-07T10:35:18;23;19;
63969;PMS5003;50156;37.772;-122.432;2022-12-07T10:37:50;22;20;
63969;PMS5003;50156;37.772;-122.432;2022-12-07T10:40:30;26;25;
63969;PMS5003;50156;37.772;-122.432;2022-12-07T10:43:02;26;24;
63969;PMS5003;50156;37.772;-122.432;2022-12-07T10:45:33;25;21;
63969;PMS5003;50156;37.772;-122.432;2022-12-07T10:48:12;28;26;
63969;PMS5003;50156;37.772;-122.432;2022-12-07T10:50:51;25;24;
63969;PMS5003;50156;37.772;-122.432;2022-12-07T10:53:32;27;25;
63969;PMS5003;50156;37.772;-122.432;2022-12-07T10:56:23;30;27;
63969;PMS5003;50156;37.772;-122.432;2022-12-07T10:59:12;29;28;
63969;PMS5003;50156;37.772;-122.432;2022-12-07T11:01:57;32;28;
63969;PMS5003;50156;37.772;-122.432;2022-12-07T11:04:43;30;26;
63969;PMS5003;50156;37.772;-122.432;2022-12-07T11:07:27;26;24;
63969;PMS5003;50156;37.772;-122.432;2022-12-07T11:10:08;27;26;
63969;PMS5003;50156;37.772;-122.432;2022-12-07T11:12:49;28;27;
63969;PMS5003;50156;37.772;-122.432;2022-12-07T11:15:29;24;22;
63969;PMS5003;50156;37.772;-122.432;2022-12-07T11:18:11;23;21;
63969;PMS5003;50156;37.772;-122.432;2022-12-07T11:20:49;17;16;
63969;PMS5003;50156;37.772;-122.432;2022-12-07T11:23:27;16;16;
63969;PMS5003;50156;37.772;-122.432;2022-12-07T11:26:09;13;13;
63969;PMS5003;50156;37.772;-122.432;2022-12-07T11:28:56;15;14;
63969;PMS5003;50156;37.772;-122.432;2022-12-07T11:31:34;16;16;
63969;PMS5003;50156;37.772;-122.432;2022-12-07T11:34:18;15;15;
63969;PMS5003;50156;37.772;-122.432;2022-12-07T11:36:54;12;12;
63969;PMS5003;50156;37.772;-122.432;2022-12-07T11:39:26;18;17;
63969;PMS5003;50156;37.772;-122.432;2022-12-07T11:42:01;12;11;
63969;PMS5003;50156;37.772;-122.432;2022-12-07T11:44:38;17;17;
63969;PMS5003;50156;37.772;-122.432;2022-12-07T11:47:16;24;20;
63969;PMS5003;50156;37.772;-122.432;2022-12-07T11:49:53;18;16;
63969;PMS5003;50156;37.772;-122.432;2022-12-07T11:52:30;12;12;
63969;PMS5003;50156;37.772;-122.432;2022-12-07T11:55:16;17;14;
63969;PMS5003;50156;37.772;-122.432;2022-12-07T11:57:51;19;18;
63969;PMS5003;50156;37.772;-122.432;2022-12-07T12:00:25;13;12;
63969;PMS5003;50156;37.772;-122.432;2022-12-07T12:02:57;14;14;
63969;PMS5003;50156;37.772;-122.432;2022-12-07T12:05:30;15;14;
63969;PMS5003;50156;37.772;-122.432;2022-12-07T12:08:01;17;17;
63969;PMS5003;50156;37.772;-122.432;2022-12-07T12:10:45;15;15;
63969;PMS5003;50156;37.772;-122.432;2022-12-07T12:13:53;14;14;
63969;PMS5003;50156;37.772;-122.432;2022-12-07T12:16:51;12;12;
63969;PMS5003;50156;37.772;-122.432;2022-12-07T12:19:36;13;13;
63969;PMS5003;50156;37.772;-122.432;2022-12-07T12:22:12;14;14;
63969;PMS5003;50156;37.772;-122.432;2022-12-07T12:24:44;16;15;
63969;PMS5003;50156;37.772;-122.432;2022-12-07T12:27:19;16;16;
63969;PMS5003;50156;37.772;-122.432;2022-12-07T12:29:53;16;16;
63969;PMS5003;50156;37.772;-122.432;2022-12-07T12:32:29;17;17;
63969;PMS5003;50156;37.772;-122.432;2022-12-07T12:35:26;19;19;
63969;PMS5003;50156;37.772;-122.432;2022-12-07T12:38:21;22;19;
63969;PMS5003;50156;37.772;-122.432;2022-12-07T12:40:56;19;18;
63969;PMS5003;50156;37.772;-122.432;2022-12-07T12:43:42;18;18;
63969;PMS5003;50156;37.772;-122.432;2022-12-07T12:46:48;21;18;
63969;PMS5003;50156;37.772;-122.432;2022-12-07T12:49:36;20;19;
63969;PMS5003;50156;37.772;-122.432;2022-12-07T12:53:14;23;23;
63969;PMS5003;50156;37.772;-122.432;2022-12-07T12:55:57;25;23;
63969;PMS5003;50156;37.772;-122.432;2022-12-07T12:59:25;21;19;
63969;PMS5003;50156;37.772;-122.432;2022-12-07T13:01:56;25;23;
63969;PMS5003;50156;37.772;-122.432;2022-12-07T13:04:49;21;21;
63969;PMS5003;50156;37.772;-122.432;2022-12-07T13:08:25;21;21;
63969;PMS5003;50156;37.772;-122.432;2022-12-07T13:10:55;22;22;
63969;PMS5003;50156;37.772;-122.432;2022-12-07T13:13:46;26;24;
63969;PMS5003;50156;37.772;-122.432;2022-12-07T13:16:47;21;21;
63969;PMS5003;50156;37.772;-122.432;2022-12-07T13:19:53;24;22;
63969;PMS5003;50156;37.772;-122.432;2022-12-07T13:22:34;25;24;
63969;PMS5003;50156;37.772;-122.432;2022-12-07T13:25:29;24;20;
63969;PMS5003;50156;37.772;-122.432;2022-12-07T13:28:08;25;21;
63969;PMS5003;50156;37.772;-122.432;2022-12-07T13:30:45;24;23;
63969;PMS5003;50156;37.772;-122.432;2022-12-07T13:33:21;30;26;
63969;PMS5003;50156;37.772;-122.432;2022-12-07T13:35:53;27;25;
63969;PMS5003;50156;37.772;-122.432;2022-12-07T13:38:25;30;26;
63969;PMS5003;50156;37.772;-122.432;2022-12-07T13:41:00;22;21;
63969;PMS5003;50156;37.772;-122.432;2022-12-07T13:43:41;20;19;
63969;PMS5003;50156;37.772;-122.432;2022-12-07T13:46:12;20;20;
63969;PMS5003;50156;37.772;-122.432;2022-12-07T13:48:43;24;23;
63969;PMS5003;50156;37.772;-122.432;2022-12-07T13:51:17;22;20;
63969;PMS5003;50156;37.772;-122.432;2022-12-07T13:53:49;22;20;
63969;PMS5003;50156;37.772;-122.432;2022-12-07T13:56:21;25;25;
63969;PMS5003;50156;37.772;-122.432;2022-12-07T13:58:54;23;23;
63969;PMS5003;50156;37.772;-122.432;2022-12-07T14:01:22;19;17;
63969;PMS5003;50156;37.772;-122.432;2022-12-07T14:03:52;20;20;
63969;PMS5003;50156;37.772;-122.432;2022-12-07T14:06:23;25;24;
63969;PMS5003;50156;37.772;-122.432;2022-12-07T14:09:16;24;22;
63969;PMS5003;50156;37.772;-122.432;2022-12-07T14:11:46;18;18;
63969;PMS5003;50156;37.772;-122.432;2022-12-07T14:14:18;25;25;
63969;PMS5003;50156;37.772;-122.432;2022-12-07T14:17:11;27;26;
63969;PMS5003;50156;37.772;-122.432;2022-12-07T14:19:51;30;28;
63969;PMS5003;50156;37.772;-122.432;2022-12-07T14:22:23;34;29;
63969;PMS5003;50156;37.772;-122.432;2022-12-07T14:25:14;30;29;
63969;PMS5003;50156;37.772;-122.432;2022-12-07T14:27:49;29;29;
63969;PMS5003;50156;37.772;-122.432;2022-12-07T14:30:19;33;27;
63969;PMS5003;50156;37.772;-122.432;2022-12-07T14:32:48;35;32;
63969;PMS5003;50156;37.772;-122.432;2022-12-07T14:35:20;32;29;
63969;PMS5003;50156;37.772;-122.432;2022-12-07T14:37:49;33;32;
63969;PMS5003;50156;37.772;-122.432;2022-12-07T14:40:19;36;33;
63969;PMS5003;50156;37.772;-122.432;2022-12-07T14:42:51;34;31;
63969;PMS5003;50156;37.772;-122.432;2022-12-07T14:45:23;35;32;
63969;PMS5003;50156;37.772;-122.432;2022-12-07T14:47:52;39;34;
63969;PMS5003;50156;37.772;-122.432;2022-12-07T14:50:21;37;35;
63969;PMS5003;50156;37.772;-122.432;2022-12-07T14:52:51;45;42;
63969;PMS5003;50156;37.772;-122.432;2022-12-07T14:55:23;31;29;
63969;PMS5003;50156;37.772;-122.432;2022-12-07T14:57:53;35;34;
63969;PMS5003;50156;37.772;-122.432;2022-12-07T15:00:24;30;27;
63969;PMS5003;50156;37.772;-122.432;2022-12-07T15:02:54;32;29;
63969;PMS5003;50156;37.772;-122.432;2022-12-07T15:05:24;40;35;
63969;PMS5003;50156;37.772;-122.432;2022-12-07T15:07:53;35;32;
63969;PMS5003;50156;37.772;-122.432;2022-12-07T15:10:22;42;41;
63969;PMS5003;50156;37.772;-122.432;2022-12-07T15:12:52;38;35;
63969;PMS5003;50156;37.772;-122.432;2022-12-07T15:15:21;36;35;
63969;PMS5003;50156;37.772;-122.432;2022-12-07T15:17:50;41;38;
63969;PMS5003;50156;37.772;-122.432;2022-12-07T15:20:18;47;42;
63969;PMS5003;50156;37.772;-122.432;2022-12-07T15:22:47;37;35;
63969;PMS5003;50156;37.772;-122.432;2022-12-07T15:25:16;34;31;
63969;PMS5003;50156;37.772;-122.432;2022-12-07T15:27:45;42;39;
63969;PMS5003;50156;37.772;-122.432;2022-12-07T15:30:14;34;33;
63969;PMS5003;50156;37.772;-122.432;2022-12-07T15:32:43;37;34;
63969;PMS5003;50156;37.772;-122.432;2022-12-07T15:35:16;39;36;
63969;PMS5003;50156;37.772;-122.432;2022-12-07T15:37:46;33;33;
63969;PMS5003;50156;37.772;-122.432;2022-12-07T15:40:14;34;34;
63969;PMS5003;50156;37.772;-122.432;2022-12-07T15:42:43;41;38;
63969;PMS5003;50156;37.772;-122.432;2022-12-07T15:45:12;38;35;
63969;PMS5003;50156;37.772;-122.432;2022-12-07T15:47:41;38;36;
63969;PMS5003;50156;37.772;-122.432;2022-12-07T15:50:13;39;37;
63969;PMS5003;50156;37.772;-122.432;2022-12-07T15:52:43;37;35;
63969;PMS5003;50156;37.772;-122.432;2022-12-07T15:55:12;40;36;
63969;PMS5003;50156;37.772;-122.432;2022-12-07T15:57:40;38;37;
63969;PMS5003;50156;37.772;-122.432;2022-12-07T16:00:10;32;32;
63969;PMS5003;50156;37.772;-122.432;2022-12-07T16:02:39;34;33;
63969;PMS5003;50156;37.772;-122.432;2022-12-07T16:05:08;33;33;
63969;PMS5003;50156;37.772;-122.432;2022-12-07T16:07:36;39;35;
63969;PMS5003;50156;37.772;-122.432;2022-12-07T16:10:05;37;36;
63969;PMS5003;50156;37.772;-122.432;2022-12-07T16:12:35;40;40;
63969;PMS5003;50156;37.772;-122.432;2022-12-07T16:15:04;39;37;
63969;PMS5003;50156;37.772;-122.432;2022-12-07T16:17:34;38;35;
63969;PMS5003;50156;37.772;-122.432;2022-12-07T16:20:03;41;36;
63969;PMS5003;50156;37.772;-122.432;2022-12-07T16:22:32;34;32;
63969;PMS5003;50156;37.772;-122.432;2022-12-07T16:25:01;38;38;